Time;durP1;ratioP1;P1;durP2;ratioP2;P2;SDS_P1;SDS_P2;PMS_P1;PMS_P2;Temp;Humidity;BMP_temperature;BMP_pressure;BME280_temperature;BME280_humidity;BME280_pressure;Samples;Min_cycle;Max_cycle;Signal;HPM_P1;HPM_P2
2024/03/08 00:00:33;;;;;;;22.63;14.88;;;;;;;;;;4995422;28;20187;-85
2024/03/08 00:03:00;;;;;;;22.95;15.70;;;;;;;;;;4979614;28;20536;-84
2024/03/08 00:05:27;;;;;;;22.55;15.60;;;;;;;;;;4996789;28;20215;-85
2024/03/08 00:07:53;;;;;;;19.17;14.80;;;;;;;;;;4995199;28;20235;-84
2024/03/08 00:10:20;;;;;;;23.40;15.48;;;;;;;;;;4979544;28;20215;-85
2024/03/08 00:12:47;;;;;;;24.45;15.05;;;;;;;;;;4996630;28;20254;-84
2024/03/08 00:15:14;;;;;;;23.20;14.43;;;;;;;;;;4996408;28;20171;-84
2024/03/08 00:17:40;;;;;;;22.77;16.73;;;;;;;;;;4995554;28;20230;-84
2024/03/08 00:20:10;;;;;;;21.77;15.05;;;;;;;;;;4979258;28;20184;-85
2024/03/08 00:22:36;;;;;;;25.08;16.30;;;;;;;;;;4995179;28;20267;-84
2024/03/08 00:25:03;;;;;;;22.85;15.85;;;;;;;;;;4995246;28;20546;-85
2024/03/08 00:27:30;;;;;;;19.73;14.48;;;;;;;;;;4978870;28;20595;-86
2024/03/08 00:29:56;;;;;;;21.60;15.70;;;;;;;;;;4979141;28;20238;-85
2024/03/08 00:32:24;;;;;;;25.30;15.45;;;;;;;;;;4995055;28;20261;-85
2024/03/08 00:34:51;;;;;;;21.75;14.88;;;;;;;;;;4995187;28;20179;-85
2024/03/08 00:37:18;;;;;;;21.55;14.25;;;;;;;;;;4996265;28;20183;-85
2024/03/08 00:39:44;;;;;;;23.75;16.05;;;;;;;;;;4979195;28;20234;-85
2024/03/08 00:42:10;;;;;;;27.08;17.42;;;;;;;;;;4996397;28;20182;-84
2024/03/08 00:44:36;;;;;;;24.05;14.65;;;;;;;;;;4996283;28;20203;-85
2024/03/08 00:47:03;;;;;;;24.95;15.80;;;;;;;;;;4996215;28;20539;-85
2024/03/08 00:49:29;;;;;;;22.65;15.02;;;;;;;;;;4996576;28;20186;-85
2024/03/08 00:51:55;;;;;;;24.17;16.45;;;;;;;;;;4994965;28;20230;-85
2024/03/08 00:54:21;;;;;;;25.20;16.27;;;;;;;;;;4995421;28;20194;-85
2024/03/08 00:56:47;;;;;;;23.30;16.90;;;;;;;;;;4996529;28;20477;-85
2024/03/08 00:59:14;;;;;;;26.95;16.85;;;;;;;;;;4994576;28;20425;-85
2024/03/08 01:01:40;;;;;;;26.48;16.08;;;;;;;;;;4994707;28;20205;-84
2024/03/08 01:04:07;;;;;;;22.70;16.95;;;;;;;;;;4996425;28;20223;-84
2024/03/08 01:06:33;;;;;;;23.50;16.38;;;;;;;;;;4994651;28;20239;-85
2024/03/08 01:08:59;;;;;;;25.23;17.20;;;;;;;;;;4995095;28;20187;-84
2024/03/08 01:11:25;;;;;;;32.77;16.83;;;;;;;;;;4994990;28;20442;-85
2024/03/08 01:13:52;;;;;;;23.33;15.57;;;;;;;;;;4996219;28;20418;-84
2024/03/08 01:16:21;;;;;;;24.00;15.65;;;;;;;;;;4996201;28;20210;-84
2024/03/08 01:18:47;;;;;;;20.17;15.38;;;;;;;;;;4996021;28;20225;-84
2024/03/08 01:21:13;;;;;;;23.17;15.40;;;;;;;;;;4996117;28;20179;-85
2024/03/08 01:23:40;;;;;;;21.00;15.18;;;;;;;;;;4978867;28;20247;-84
2024/03/08 01:26:06;;;;;;;24.47;15.63;;;;;;;;;;4996071;28;20189;-84
2024/03/08 01:28:34;;;;;;;22.15;16.10;;;;;;;;;;4994752;28;20459;-85
2024/03/08 01:31:00;;;;;;;28.58;16.17;;;;;;;;;;4979259;28;20278;-85
2024/03/08 01:33:27;;;;;;;23.95;15.68;;;;;;;;;;4995678;28;20189;-84
2024/03/08 01:35:53;;;;;;;24.65;15.93;;;;;;;;;;4996377;28;20185;-85
2024/03/08 01:38:23;;;;;;;26.58;16.77;;;;;;;;;;4994934;28;20186;-84
2024/03/08 01:40:49;;;;;;;25.27;17.38;;;;;;;;;;4995514;28;20238;-85
2024/03/08 01:43:17;;;;;;;23.77;15.77;;;;;;;;;;4995741;28;20542;-85
2024/03/08 01:45:43;;;;;;;25.52;15.93;;;;;;;;;;4996047;28;20535;-85
2024/03/08 01:48:10;;;;;;;25.47;16.63;;;;;;;;;;4995875;28;20194;-85
2024/03/08 01:50:36;;;;;;;27.10;18.90;;;;;;;;;;4995530;28;20751;-84
2024/03/08 01:53:02;;;;;;;25.52;16.85;;;;;;;;;;4978420;28;20184;-85
2024/03/08 01:55:28;;;;;;;24.52;16.20;;;;;;;;;;4994585;28;20190;-85
2024/03/08 01:57:54;;;;;;;25.15;16.50;;;;;;;;;;4994540;28;20556;-84
2024/03/08 02:00:21;;;;;;;20.98;15.38;;;;;;;;;;4978120;28;20186;-84
2024/03/08 02:02:47;;;;;;;24.20;15.98;;;;;;;;;;4995112;28;20183;-84
2024/03/08 02:05:13;;;;;;;23.27;16.63;;;;;;;;;;4978184;28;20229;-85
2024/03/08 02:07:43;;;;;;;23.85;16.25;;;;;;;;;;4995815;28;20225;-85
2024/03/08 02:10:12;;;;;;;24.23;16.48;;;;;;;;;;4995727;28;20170;-85
2024/03/08 02:12:38;;;;;;;28.60;18.30;;;;;;;;;;4994012;28;20675;-84
2024/03/08 02:15:06;;;;;;;26.70;18.30;;;;;;;;;;4994533;28;20337;-84
2024/03/08 02:17:33;;;;;;;24.15;16.90;;;;;;;;;;4979894;28;20415;-85
2024/03/08 02:20:01;;;;;;;29.80;19.13;;;;;;;;;;4998985;28;20183;-84
2024/03/08 02:22:27;;;;;;;26.50;16.58;;;;;;;;;;4999664;28;20182;-85
2024/03/08 02:24:53;;;;;;;27.00;16.30;;;;;;;;;;4997442;28;20221;-85
2024/03/08 02:27:24;;;;;;;28.13;17.00;;;;;;;;;;4998968;28;20188;-85
2024/03/08 02:29:51;;;;;;;24.80;16.77;;;;;;;;;;4998857;28;20421;-85
2024/03/08 02:32:17;;;;;;;24.30;16.80;;;;;;;;;;4998831;28;20195;-85
2024/03/08 02:34:43;;;;;;;26.38;17.55;;;;;;;;;;4981860;28;20225;-84
2024/03/08 02:37:09;;;;;;;26.80;17.67;;;;;;;;;;4998867;28;20187;-85
2024/03/08 02:39:35;;;;;;;24.75;16.45;;;;;;;;;;4981802;28;20425;-84
2024/03/08 02:42:01;;;;;;;26.87;18.00;;;;;;;;;;4998377;28;20554;-84
2024/03/08 02:44:27;;;;;;;26.17;17.92;;;;;;;;;;4998548;28;20557;-85
2024/03/08 02:46:55;;;;;;;29.07;16.97;;;;;;;;;;4998454;28;20265;-84
2024/03/08 02:49:21;;;;;;;24.80;16.38;;;;;;;;;;4981324;28;20419;-85
2024/03/08 02:51:46;;;;;;;23.52;16.45;;;;;;;;;;4998354;28;20259;-84
2024/03/08 02:54:12;;;;;;;27.90;17.48;;;;;;;;;;4997704;28;20211;-85
2024/03/08 02:56:38;;;;;;;31.50;18.47;;;;;;;;;;4981373;28;20187;-85
2024/03/08 02:59:04;;;;;;;24.42;17.48;;;;;;;;;;4981130;28;20425;-85
2024/03/08 03:01:31;;;;;;;26.33;17.57;;;;;;;;;;4978455;28;20192;-84
2024/03/08 03:03:58;;;;;;;32.67;16.67;;;;;;;;;;4961280;28;20479;-84
2024/03/08 03:06:24;;;;;;;29.65;18.88;;;;;;;;;;4978662;28;20232;-85
2024/03/08 03:08:51;;;;;;;29.38;17.58;;;;;;;;;;4978924;28;20298;-84
2024/03/08 03:11:17;;;;;;;27.92;17.67;;;;;;;;;;4961783;28;20582;-84
2024/03/08 03:13:47;;;;;;;30.70;17.42;;;;;;;;;;4961095;28;20538;-84
2024/03/08 03:16:18;;;;;;;26.23;17.17;;;;;;;;;;4962076;28;20524;-84
2024/03/08 03:18:45;;;;;;;27.75;18.10;;;;;;;;;;4993909;28;20203;-84
2024/03/08 03:21:12;;;;;;;29.25;17.83;;;;;;;;;;4964998;28;20189;-84
2024/03/08 03:23:39;;;;;;;30.58;18.60;;;;;;;;;;4998129;28;20545;-85
2024/03/08 03:26:07;;;;;;;25.70;16.02;;;;;;;;;;4964491;28;20183;-84
2024/03/08 03:28:33;;;;;;;30.30;17.05;;;;;;;;;;4979933;28;20185;-84
2024/03/08 03:30:59;;;;;;;28.40;18.52;;;;;;;;;;4997916;28;20248;-84
2024/03/08 03:33:25;;;;;;;31.17;18.65;;;;;;;;;;4980008;28;20186;-85
2024/03/08 03:35:54;;;;;;;29.23;18.80;;;;;;;;;;4998013;28;20235;-85
2024/03/08 03:38:23;;;;;;;28.63;17.10;;;;;;;;;;4998122;28;20170;-85
2024/03/08 03:40:52;;;;;;;27.30;17.25;;;;;;;;;;4997995;28;20172;-84
2024/03/08 03:43:18;;;;;;;29.67;18.08;;;;;;;;;;4996880;28;20566;-85
2024/03/08 03:45:44;;;;;;;32.90;20.40;;;;;;;;;;4997557;28;20715;-84
2024/03/08 03:48:10;;;;;;;30.80;18.50;;;;;;;;;;4997261;28;20183;-85
2024/03/08 03:50:36;;;;;;;28.55;18.95;;;;;;;;;;4998047;28;20434;-85
2024/03/08 03:53:03;;;;;;;30.17;18.00;;;;;;;;;;4996424;28;20627;-85
2024/03/08 03:55:29;;;;;;;26.67;17.52;;;;;;;;;;4996683;28;20655;-85
2024/03/08 03:57:55;;;;;;;30.55;18.35;;;;;;;;;;4997548;28;20272;-85
2024/03/08 04:00:21;;;;;;;32.72;19.88;;;;;;;;;;4996676;28;20175;-85
2024/03/08 04:02:47;;;;;;;28.58;19.13;;;;;;;;;;4963995;28;20210;-84
2024/03/08 04:05:13;;;;;;;33.57;18.43;;;;;;;;;;4979394;28;20284;-84
2024/03/08 04:07:39;;;;;;;30.23;17.95;;;;;;;;;;4997510;28;20476;-85
2024/03/08 04:10:06;;;;;;;26.92;17.00;;;;;;;;;;4996005;28;20189;-85
2024/03/08 04:12:33;;;;;;;27.42;17.60;;;;;;;;;;4997638;28;20654;-85
2024/03/08 04:14:59;;;;;;;29.73;18.98;;;;;;;;;;4980459;28;20181;-84
2024/03/08 04:17:25;;;;;;;33.13;18.75;;;;;;;;;;4979881;28;20693;-84
2024/03/08 04:19:51;;;;;;;35.17;19.08;;;;;;;;;;4995043;28;20219;-84
2024/03/08 04:22:17;;;;;;;28.98;17.98;;;;;;;;;;4997337;28;20595;-85
2024/03/08 04:24:44;;;;;;;31.33;16.58;;;;;;;;;;4997131;28;20215;-84
2024/03/08 04:27:10;;;;;;;30.02;19.55;;;;;;;;;;4997393;28;20238;-85
2024/03/08 04:29:36;;;;;;;26.98;18.60;;;;;;;;;;4979981;28;20179;-85
2024/03/08 04:32:06;;;;;;;29.52;18.70;;;;;;;;;;4979569;28;20630;-85
2024/03/08 04:34:33;;;;;;;25.92;16.38;;;;;;;;;;4979583;28;20670;-85
2024/03/08 04:37:04;;;;;;;28.48;16.85;;;;;;;;;;4997860;28;20267;-85
2024/03/08 04:39:31;;;;;;;29.30;17.95;;;;;;;;;;5009867;28;20177;-85
2024/03/08 04:42:09;;;;;;;25.35;16.65;;;;;;;;;;5008542;28;20710;-85
2024/03/08 04:44:35;;;;;;;30.88;18.85;;;;;;;;;;4996905;28;20659;-85
2024/03/08 04:47:01;;;;;;;26.75;16.85;;;;;;;;;;4996819;28;20190;-85
2024/03/08 04:49:28;;;;;;;25.53;17.10;;;;;;;;;;4995287;28;20241;-84
2024/03/08 04:51:53;;;;;;;26.40;17.98;;;;;;;;;;4995414;28;20501;-85
2024/03/08 04:54:19;;;;;;;27.20;17.10;;;;;;;;;;4996973;28;20185;-85
2024/03/08 04:56:46;;;;;;;29.43;19.70;;;;;;;;;;5012933;28;20422;-84
2024/03/08 04:59:11;;;;;;;28.05;16.95;;;;;;;;;;4996188;28;20433;-85
2024/03/08 05:01:37;;;;;;;27.38;17.05;;;;;;;;;;4981736;28;20190;-85
2024/03/08 05:04:04;;;;;;;26.80;17.40;;;;;;;;;;4976644;28;20211;-85
2024/03/08 05:06:30;;;;;;;35.15;18.73;;;;;;;;;;5011686;28;20236;-85
2024/03/08 05:08:56;;;;;;;30.48;19.08;;;;;;;;;;4998056;28;20193;-84
2024/03/08 05:11:22;;;;;;;29.75;19.08;;;;;;;;;;5009412;28;20195;-83
2024/03/08 05:13:48;;;;;;;31.63;17.85;;;;;;;;;;4977870;28;20197;-84
2024/03/08 05:16:15;;;;;;;28.90;17.43;;;;;;;;;;4989916;28;20549;-85
2024/03/08 05:18:42;;;;;;;33.30;17.65;;;;;;;;;;4999369;28;20416;-85
2024/03/08 05:21:09;;;;;;;27.27;18.98;;;;;;;;;;5015096;28;20185;-85
2024/03/08 05:23:35;;;;;;;28.38;17.45;;;;;;;;;;4976750;28;20615;-84
2024/03/08 05:26:01;;;;;;;29.63;17.83;;;;;;;;;;4962938;28;20179;-84
2024/03/08 05:28:27;;;;;;;30.75;19.13;;;;;;;;;;4995614;28;20183;-85
2024/03/08 05:30:56;;;;;;;29.92;19.65;;;;;;;;;;4994120;28;20188;-84
2024/03/08 05:33:23;;;;;;;27.40;17.42;;;;;;;;;;4987166;28;20517;-85
2024/03/08 05:35:49;;;;;;;29.48;17.95;;;;;;;;;;4979206;28;20189;-83
2024/03/08 05:38:15;;;;;;;27.95;17.25;;;;;;;;;;4978328;28;20188;-85
2024/03/08 05:40:43;;;;;;;29.15;16.63;;;;;;;;;;4994640;28;20240;-84
2024/03/08 05:43:09;;;;;;;30.40;18.75;;;;;;;;;;4994477;28;20272;-85
2024/03/08 05:45:35;;;;;;;26.80;17.50;;;;;;;;;;4999499;28;20186;-85
2024/03/08 05:48:01;;;;;;;27.13;17.30;;;;;;;;;;4982108;28;20175;-84
2024/03/08 05:50:27;;;;;;;31.58;19.70;;;;;;;;;;4998381;28;20421;-84
2024/03/08 05:52:53;;;;;;;30.75;19.42;;;;;;;;;;4998639;28;20630;-84
2024/03/08 05:55:19;;;;;;;32.27;20.00;;;;;;;;;;5004183;28;20228;-85
2024/03/08 05:57:45;;;;;;;33.35;18.38;;;;;;;;;;4982222;28;20564;-85
2024/03/08 06:00:11;;;;;;;28.35;20.15;;;;;;;;;;4982196;28;20653;-84
2024/03/08 06:02:40;;;;;;;32.25;19.23;;;;;;;;;;4999927;28;20190;-85
2024/03/08 06:05:08;;;;;;;31.33;18.83;;;;;;;;;;4985853;28;20281;-85
2024/03/08 06:07:34;;;;;;;32.38;18.60;;;;;;;;;;5000999;28;20234;-84
2024/03/08 06:10:00;;;;;;;31.97;17.40;;;;;;;;;;5018169;28;20603;-85
2024/03/08 06:12:28;;;;;;;28.50;17.55;;;;;;;;;;5018173;28;20428;-85
2024/03/08 06:14:54;;;;;;;29.10;18.80;;;;;;;;;;4994450;28;20214;-84
2024/03/08 06:17:25;;;;;;;28.85;17.30;;;;;;;;;;4983865;28;20255;-87
2024/03/08 06:19:51;;;;;;;26.75;18.05;;;;;;;;;;4982301;28;20172;-88
2024/03/08 06:22:19;;;;;;;31.20;18.52;;;;;;;;;;4980943;28;20274;-88
2024/03/08 06:24:45;;;;;;;36.58;18.88;;;;;;;;;;4981711;28;20204;-87
2024/03/08 06:27:11;;;;;;;31.17;17.50;;;;;;;;;;5016999;28;20693;-88
2024/03/08 06:29:37;;;;;;;24.70;14.17;;;;;;;;;;5003198;28;20414;-83
2024/03/08 06:32:03;;;;;;;31.33;18.83;;;;;;;;;;4998952;28;20516;-82
2024/03/08 06:34:29;;;;;;;34.97;19.45;;;;;;;;;;4997155;28;20475;-82
2024/03/08 06:37:00;;;;;;;28.98;18.92;;;;;;;;;;4997994;28;20338;-83
2024/03/08 06:39:26;;;;;;;29.10;19.33;;;;;;;;;;4999409;28;20176;-82
2024/03/08 06:41:52;;;;;;;34.85;20.48;;;;;;;;;;4999071;28;20181;-80
2024/03/08 06:44:21;;;;;;;30.27;18.40;;;;;;;;;;4981440;28;20210;-82
2024/03/08 06:46:48;;;;;;;28.38;17.77;;;;;;;;;;4999157;28;20651;-82
2024/03/08 06:49:15;;;;;;;41.00;21.00;;;;;;;;;;4999269;28;20557;-82
2024/03/08 06:51:41;;;;;;;31.67;17.92;;;;;;;;;;4999521;28;20186;-82
2024/03/08 06:54:08;;;;;;;29.85;17.75;;;;;;;;;;4998941;28;20208;-82
2024/03/08 06:56:35;;;;;;;31.00;18.33;;;;;;;;;;4999386;28;20178;-82
2024/03/08 06:59:03;;;;;;;28.90;18.17;;;;;;;;;;4999098;28;20180;-82
2024/03/08 07:01:31;;;;;;;29.83;19.20;;;;;;;;;;4998715;28;20517;-82
2024/03/08 07:03:57;;;;;;;31.13;18.85;;;;;;;;;;4997909;28;20222;-82
2024/03/08 07:06:23;;;;;;;31.58;19.65;;;;;;;;;;4998878;28;20673;-82
2024/03/08 07:08:49;;;;;;;29.15;18.77;;;;;;;;;;4999107;28;20534;-82
2024/03/08 07:11:18;;;;;;;27.03;18.03;;;;;;;;;;4998627;28;20176;-82
2024/03/08 07:13:45;;;;;;;30.88;18.48;;;;;;;;;;4999022;28;20481;-82
2024/03/08 07:16:11;;;;;;;27.40;18.85;;;;;;;;;;4998543;28;20647;-82
2024/03/08 07:18:43;;;;;;;33.28;19.45;;;;;;;;;;4999093;28;20186;-81
2024/03/08 07:21:09;;;;;;;31.80;20.10;;;;;;;;;;4999169;28;20169;-82
2024/03/08 07:24:02;;;;;;;30.00;18.97;;;;;;;;;;4998625;28;20263;-82
2024/03/08 07:26:29;;;;;;;29.05;18.13;;;;;;;;;;4998724;28;20458;-82
2024/03/08 07:28:55;;;;;;;27.40;17.75;;;;;;;;;;4998763;28;20642;-82
2024/03/08 07:31:26;;;;;;;28.53;18.20;;;;;;;;;;4998334;28;20179;-82
2024/03/08 07:33:55;;;;;;;28.38;18.63;;;;;;;;;;5018906;28;20471;-82
2024/03/08 07:36:24;;;;;;;28.75;17.40;;;;;;;;;;5018018;28;20183;-82
2024/03/08 07:38:50;;;;;;;29.65;18.92;;;;;;;;;;5000748;28;20185;-83
2024/03/08 07:41:16;;;;;;;28.73;17.92;;;;;;;;;;5017931;28;20182;-82
2024/03/08 07:43:42;;;;;;;29.07;17.90;;;;;;;;;;5000933;28;20261;-83
2024/03/08 07:46:10;;;;;;;30.17;18.60;;;;;;;;;;5017449;28;20406;-83
2024/03/08 07:48:39;;;;;;;29.65;18.50;;;;;;;;;;5016441;28;20184;-82
2024/03/08 07:51:05;;;;;;;29.73;18.15;;;;;;;;;;4997959;28;20188;-82
2024/03/08 07:53:31;;;;;;;31.50;17.83;;;;;;;;;;4998578;28;20191;-83
2024/03/08 07:55:57;;;;;;;27.67;17.30;;;;;;;;;;4997604;28;20423;-81
2024/03/08 07:58:23;;;;;;;28.70;16.90;;;;;;;;;;4963883;28;20550;-83
2024/03/08 08:00:49;;;;;;;27.90;18.20;;;;;;;;;;4961383;28;20499;-82
2024/03/08 08:03:15;;;;;;;24.90;17.60;;;;;;;;;;4960916;28;20411;-83
2024/03/08 08:05:42;;;;;;;29.95;18.05;;;;;;;;;;4978046;28;20183;-81
2024/03/08 08:08:10;;;;;;;28.48;18.08;;;;;;;;;;4992498;28;20195;-82
2024/03/08 08:10:36;;;;;;;28.42;18.25;;;;;;;;;;4997719;28;20298;-83
2024/03/08 08:13:04;;;;;;;27.00;16.98;;;;;;;;;;4996037;28;20184;-81
2024/03/08 08:15:30;;;;;;;25.30;18.10;;;;;;;;;;4997692;28;20644;-82
2024/03/08 08:17:56;;;;;;;30.02;18.92;;;;;;;;;;4997548;28;20206;-82
2024/03/08 08:20:23;;;;;;;28.23;17.80;;;;;;;;;;4997165;28;20539;-83
2024/03/08 08:22:49;;;;;;;27.95;17.35;;;;;;;;;;4997669;28;20407;-81
2024/03/08 08:25:15;;;;;;;28.75;18.92;;;;;;;;;;4996854;28;20265;-82
2024/03/08 08:27:42;;;;;;;27.45;17.00;;;;;;;;;;4996258;28;20267;-82
2024/03/08 08:30:09;;;;;;;24.80;17.40;;;;;;;;;;4996748;28;20258;-83
2024/03/08 08:32:39;;;;;;;24.52;16.40;;;;;;;;;;4997630;28;20183;-82
2024/03/08 08:35:05;;;;;;;26.60;16.95;;;;;;;;;;4997217;28;20178;-82
2024/03/08 08:37:31;;;;;;;26.67;17.70;;;;;;;;;;4996666;28;20185;-83
2024/03/08 08:39:58;;;;;;;26.00;16.30;;;;;;;;;;4997342;28;20183;-83
2024/03/08 08:42:24;;;;;;;23.27;15.23;;;;;;;;;;4997232;28;20174;-83
2024/03/08 08:44:50;;;;;;;24.58;15.60;;;;;;;;;;4997216;28;20262;-82
2024/03/08 08:47:19;;;;;;;26.88;18.25;;;;;;;;;;4997519;28;20211;-82
2024/03/08 08:49:46;;;;;;;28.85;17.60;;;;;;;;;;4997078;28;20183;-82
2024/03/08 08:52:12;;;;;;;24.33;16.98;;;;;;;;;;4995742;28;20190;-82
2024/03/08 08:54:38;;;;;;;25.25;17.20;;;;;;;;;;4997221;28;20184;-83
2024/03/08 08:57:07;;;;;;;25.10;16.60;;;;;;;;;;4996792;28;20180;-82
2024/03/08 08:59:35;;;;;;;23.85;16.77;;;;;;;;;;4996807;28;20167;-81
2024/03/08 09:02:01;;;;;;;30.10;16.63;;;;;;;;;;4999019;28;20534;-82
2024/03/08 09:04:29;;;;;;;29.45;18.55;;;;;;;;;;5016300;28;20220;-82
2024/03/08 09:06:55;;;;;;;39.17;19.05;;;;;;;;;;4999053;28;20313;-82
2024/03/08 09:09:21;;;;;;;30.33;17.63;;;;;;;;;;5016233;28;20189;-83
2024/03/08 09:11:49;;;;;;;34.95;19.92;;;;;;;;;;4999061;28;20541;-83
2024/03/08 09:14:15;;;;;;;28.85;17.02;;;;;;;;;;5016581;28;20183;-81
2024/03/08 09:16:41;;;;;;;27.70;18.17;;;;;;;;;;5016733;28;20521;-81
2024/03/08 09:19:07;;;;;;;30.83;18.17;;;;;;;;;;5016410;28;20402;-81
2024/03/08 09:21:34;;;;;;;24.15;15.02;;;;;;;;;;5016460;28;20170;-83
2024/03/08 09:24:00;;;;;;;24.52;16.40;;;;;;;;;;5016355;28;20227;-80
2024/03/08 09:26:26;;;;;;;23.23;15.45;;;;;;;;;;5016308;28;20171;-82
2024/03/08 09:28:54;;;;;;;19.43;14.10;;;;;;;;;;5021085;28;20575;-81
2024/03/08 09:31:21;;;;;;;22.30;14.52;;;;;;;;;;5020215;28;20460;-79
2024/03/08 09:33:47;;;;;;;20.42;14.77;;;;;;;;;;5020427;28;20175;-82
2024/03/08 09:36:14;;;;;;;23.10;15.27;;;;;;;;;;5002069;28;20207;-82
2024/03/08 09:38:40;;;;;;;20.42;13.38;;;;;;;;;;5000991;28;20651;-82
2024/03/08 09:41:06;;;;;;;19.80;14.07;;;;;;;;;;5000829;28;20620;-80
2024/03/08 09:43:32;;;;;;;21.42;15.10;;;;;;;;;;5000662;28;20262;-81
2024/03/08 09:45:58;;;;;;;19.93;13.90;;;;;;;;;;5000360;28;20168;-82
2024/03/08 09:48:25;;;;;;;18.07;13.63;;;;;;;;;;4999798;28;20427;-82
2024/03/08 09:50:51;;;;;;;20.00;13.90;;;;;;;;;;5000344;28;20395;-81
2024/03/08 09:53:18;;;;;;;16.23;12.63;;;;;;;;;;4998904;28;20409;-82
2024/03/08 09:55:49;;;;;;;17.00;12.53;;;;;;;;;;4982239;28;20423;-81
2024/03/08 10:00:53;;;;;;;15.03;12.10;;;;;;;;;;5000347;28;20387;-81
2024/03/08 10:03:22;;;;;;;17.27;12.83;;;;;;;;;;4982588;28;20766;-82
2024/03/08 10:05:48;;;;;;;18.00;13.27;;;;;;;;;;4999517;28;20409;-81
2024/03/08 10:08:14;;;;;;;15.57;12.23;;;;;;;;;;4999742;28;20412;-81
2024/03/08 10:10:40;;;;;;;18.90;12.73;;;;;;;;;;5000049;28;20406;-80
2024/03/08 10:13:07;;;;;;;17.97;12.70;;;;;;;;;;4999393;28;20417;-82
2024/03/08 10:15:33;;;;;;;16.70;12.00;;;;;;;;;;4981943;28;20463;-81
2024/03/08 10:17:59;;;;;;;16.50;13.90;;;;;;;;;;4999302;28;20411;-83
2024/03/08 10:20:26;;;;;;;15.10;11.43;;;;;;;;;;4998748;28;20425;-82
2024/03/08 10:22:53;;;;;;;19.33;12.00;;;;;;;;;;4993405;28;20505;-82
2024/03/08 10:25:19;;;;;;;14.30;10.90;;;;;;;;;;4999206;28;20474;-82
2024/03/08 10:27:46;;;;;;;16.90;10.97;;;;;;;;;;4999361;28;20407;-82
2024/03/08 10:30:19;;;;;;;15.93;12.17;;;;;;;;;;4981399;28;20415;-83
2024/03/08 10:32:45;;;;;;;16.60;11.50;;;;;;;;;;4998502;28;20391;-83
2024/03/08 10:35:12;;;;;;;13.03;11.57;;;;;;;;;;4981400;28;20783;-83
2024/03/08 10:37:45;;;;;;;18.20;10.90;;;;;;;;;;4981038;28;20533;-82
2024/03/08 10:40:15;;;;;;;13.23;9.70;;;;;;;;;;4979863;28;20426;-82
2024/03/08 10:42:47;;;;;;;15.30;11.17;;;;;;;;;;4998903;28;20414;-81
2024/03/08 10:45:22;;;;;;;13.27;10.23;;;;;;;;;;4980264;28;20861;-83
2024/03/08 10:47:50;;;;;;;10.53;8.80;;;;;;;;;;4980920;28;20418;-80
2024/03/08 10:50:22;;;;;;;12.87;10.67;;;;;;;;;;4980422;28;20906;-82
2024/03/08 10:52:52;;;;;;;13.50;9.70;;;;;;;;;;4998468;28;20905;-82
2024/03/08 10:55:20;;;;;;;13.13;10.20;;;;;;;;;;4998310;28;20474;-82
2024/03/08 10:57:47;;;;;;;10.77;9.67;;;;;;;;;;4998261;28;20513;-82
2024/03/08 11:00:13;;;;;;;13.27;9.90;;;;;;;;;;4997824;28;20411;-81
2024/03/08 11:02:39;;;;;;;11.47;8.87;;;;;;;;;;4998409;28;20377;-82
2024/03/08 11:05:12;;;;;;;12.97;9.77;;;;;;;;;;4980851;28;20508;-82
2024/03/08 11:07:41;;;;;;;17.93;10.30;;;;;;;;;;4997781;28;20462;-82
2024/03/08 11:10:10;;;;;;;15.10;11.07;;;;;;;;;;4980193;28;20419;-81
2024/03/08 11:12:37;;;;;;;13.67;9.90;;;;;;;;;;4997847;28;20470;-83
2024/03/08 11:15:13;;;;;;;13.23;10.07;;;;;;;;;;4980644;28;20430;-82
2024/03/08 11:17:39;;;;;;;11.47;7.90;;;;;;;;;;4997972;28;20434;-85
2024/03/08 11:20:15;;;;;;;10.70;8.77;;;;;;;;;;4998275;28;20403;-81
2024/03/08 11:22:52;;;;;;;15.20;10.87;;;;;;;;;;4998033;28;20778;-82
2024/03/08 11:25:31;;;;;;;13.17;8.60;;;;;;;;;;4997551;28;20826;-82
2024/03/08 11:28:16;;;;;;;10.80;8.73;;;;;;;;;;4997929;28;20490;-81
2024/03/08 11:30:42;;;;;;;11.83;9.40;;;;;;;;;;4996317;28;20441;-83
2024/03/08 11:33:12;;;;;;;13.40;8.53;;;;;;;;;;4997327;28;20395;-81
2024/03/08 11:35:39;;;;;;;10.23;9.13;;;;;;;;;;4997247;28;20822;-83
2024/03/08 11:38:06;;;;;;;10.40;9.03;;;;;;;;;;4998229;28;20403;-81
2024/03/08 11:40:33;;;;;;;12.93;8.87;;;;;;;;;;4997202;28;20388;-82
2024/03/08 11:42:59;;;;;;;12.67;9.60;;;;;;;;;;4997495;28;20474;-81
2024/03/08 11:45:25;;;;;;;13.97;9.80;;;;;;;;;;4997179;28;20509;-82
2024/03/08 11:47:52;;;;;;;13.43;9.70;;;;;;;;;;4997481;28;20410;-82
2024/03/08 11:50:20;;;;;;;12.80;9.80;;;;;;;;;;4996445;28;20826;-81
2024/03/08 11:52:47;;;;;;;11.73;9.80;;;;;;;;;;4997095;28;20433;-82
2024/03/08 11:55:13;;;;;;;12.23;10.17;;;;;;;;;;4996591;28;20827;-81
2024/03/08 11:57:39;;;;;;;12.47;10.00;;;;;;;;;;4996738;28;20498;-81
2024/03/08 12:00:06;;;;;;;11.97;9.70;;;;;;;;;;4997488;28;20418;-82
2024/03/08 12:02:36;;;;;;;11.77;10.57;;;;;;;;;;4996426;28;20432;-81
2024/03/08 12:05:03;;;;;;;12.17;10.83;;;;;;;;;;4997239;28;20540;-81
2024/03/08 12:07:29;;;;;;;12.20;10.20;;;;;;;;;;4997126;28;20444;-82
2024/03/08 12:10:17;;;;;;;11.60;9.37;;;;;;;;;;4997014;28;20399;-84
2024/03/08 12:12:43;;;;;;;13.87;8.87;;;;;;;;;;4996716;28;20380;-82
2024/03/08 12:15:11;;;;;;;11.67;9.50;;;;;;;;;;4979517;28;20414;-82
2024/03/08 12:17:38;;;;;;;11.97;10.20;;;;;;;;;;4996550;28;20389;-82
2024/03/08 12:20:24;;;;;;;13.10;9.83;;;;;;;;;;4979261;28;20441;-81
2024/03/08 12:22:56;;;;;;;12.50;9.73;;;;;;;;;;4997061;28;20395;-82
2024/03/08 12:25:22;;;;;;;12.33;9.73;;;;;;;;;;4995461;28;20490;-82
2024/03/08 12:27:48;;;;;;;11.17;9.80;;;;;;;;;;4996394;28;20389;-82
2024/03/08 12:30:21;;;;;;;12.10;9.73;;;;;;;;;;4995099;28;20415;-79
2024/03/08 12:33:10;;;;;;;11.37;9.67;;;;;;;;;;4996105;28;20441;-82
2024/03/08 12:35:37;;;;;;;13.07;10.33;;;;;;;;;;4994442;28;20516;-82
2024/03/08 12:38:03;;;;;;;11.30;10.20;;;;;;;;;;4995883;28;20399;-81
2024/03/08 12:40:29;;;;;;;15.90;9.73;;;;;;;;;;4995669;28;20430;-82
2024/03/08 12:43:06;;;;;;;11.97;9.43;;;;;;;;;;4995443;28;20898;-81
2024/03/08 12:45:32;;;;;;;11.33;9.57;;;;;;;;;;4995728;28;20436;-82
2024/03/08 12:47:59;;;;;;;11.50;10.10;;;;;;;;;;4995960;28;20410;-82
2024/03/08 12:50:25;;;;;;;12.40;9.13;;;;;;;;;;4995865;28;20414;-81
2024/03/08 12:52:55;;;;;;;11.40;8.80;;;;;;;;;;4994999;28;20923;-81
2024/03/08 12:55:21;;;;;;;12.60;10.07;;;;;;;;;;4995492;28;20457;-81
2024/03/08 12:57:48;;;;;;;13.40;10.00;;;;;;;;;;4977860;28;20953;-81
2024/03/08 13:00:24;;;;;;;11.70;9.20;;;;;;;;;;4995747;28;20557;-82
2024/03/08 13:02:51;;;;;;;9.17;7.93;;;;;;;;;;4994827;28;20430;-82
2024/03/08 13:05:17;;;;;;;14.70;8.90;;;;;;;;;;4995016;28;20486;-81
2024/03/08 13:07:45;;;;;;;14.20;10.23;;;;;;;;;;4995430;28;20454;-81
2024/03/08 13:10:14;;;;;;;12.87;9.90;;;;;;;;;;4995172;28;20493;-81
2024/03/08 13:12:41;;;;;;;12.50;9.43;;;;;;;;;;4995095;28;20767;-82
2024/03/08 13:15:08;;;;;;;11.77;9.00;;;;;;;;;;4994192;28;20807;-81
2024/03/08 13:17:34;;;;;;;9.37;8.00;;;;;;;;;;4990630;28;20419;-81
2024/03/08 13:20:00;;;;;;;9.93;8.80;;;;;;;;;;4978176;28;20415;-81
2024/03/08 13:22:27;;;;;;;10.00;8.37;;;;;;;;;;4994988;28;20415;-81
2024/03/08 13:24:53;;;;;;;11.33;9.10;;;;;;;;;;4995231;28;20565;-81
2024/03/08 13:27:19;;;;;;;12.33;9.40;;;;;;;;;;4995223;28;20418;-80
2024/03/08 13:29:47;;;;;;;10.80;9.37;;;;;;;;;;4995183;28;20888;-80
2024/03/08 13:32:13;;;;;;;10.17;7.83;;;;;;;;;;4995605;28;20407;-82
2024/03/08 13:34:42;;;;;;;10.23;8.43;;;;;;;;;;4994900;28;20786;-82
2024/03/08 13:37:09;;;;;;;8.80;7.90;;;;;;;;;;4994925;28;20416;-82
2024/03/08 13:39:40;;;;;;;8.93;8.03;;;;;;;;;;4995091;28;20743;-81
2024/03/08 13:42:11;;;;;;;10.00;8.40;;;;;;;;;;4994505;28;20379;-82
2024/03/08 13:44:37;;;;;;;11.13;8.70;;;;;;;;;;4994180;28;20441;-81
2024/03/08 13:47:04;;;;;;;10.50;8.83;;;;;;;;;;4994627;28;20414;-81
2024/03/08 13:49:30;;;;;;;12.73;8.50;;;;;;;;;;4994239;28;20761;-81
2024/03/08 13:51:58;;;;;;;11.30;8.70;;;;;;;;;;4994698;28;20411;-81
2024/03/08 13:54:24;;;;;;;15.87;8.80;;;;;;;;;;4976449;28;20429;-81
2024/03/08 13:56:54;;;;;;;11.90;9.20;;;;;;;;;;4994641;28;20411;-81
2024/03/08 13:59:22;;;;;;;10.30;9.20;;;;;;;;;;4994179;28;20743;-81
2024/03/08 14:01:48;;;;;;;14.20;10.70;;;;;;;;;;4994720;28;20401;-80
2024/03/08 14:04:17;;;;;;;11.17;9.23;;;;;;;;;;4994630;28;20516;-81
2024/03/08 14:06:47;;;;;;;14.20;8.70;;;;;;;;;;4994194;28;20514;-82
2024/03/08 14:09:16;;;;;;;12.70;9.73;;;;;;;;;;4994564;28;20385;-82
2024/03/08 14:11:44;;;;;;;12.27;9.53;;;;;;;;;;4977342;28;20865;-81
2024/03/08 14:14:12;;;;;;;12.43;9.90;;;;;;;;;;4997278;28;20410;-81
2024/03/08 14:16:38;;;;;;;14.10;10.30;;;;;;;;;;4997749;28;20419;-81
2024/03/08 14:19:05;;;;;;;14.70;10.80;;;;;;;;;;4997830;28;20401;-82
2024/03/08 14:21:31;;;;;;;15.53;12.50;;;;;;;;;;4997780;28;20468;-81